sensor_id;sensor_type;location;lat;lon;timestamp;temperature;humidity
73570;SHT30;61850;54.980;73.298;2023-01-01T00:02:22;-16.02;79.78
73570;SHT30;61850;54.980;73.298;2023-01-01T00:04:49;-16.01;79.59
73570;SHT30;61850;54.980;73.298;2023-01-01T00:07:16;-16.09;79.57
73570;SHT30;61850;54.980;73.298;2023-01-01T00:09:42;-16.02;79.70
73570;SHT30;61850;54.980;73.298;2023-01-01T00:12:26;-15.99;79.62
73570;SHT30;61850;54.980;73.298;2023-01-01T00:14:54;-16.01;79.42
73570;SHT30;61850;54.980;73.298;2023-01-01T00:17:21;-16.02;79.45
73570;SHT30;61850;54.980;73.298;2023-01-01T00:19:47;-16.05;79.47
73570;SHT30;61850;54.980;73.298;2023-01-01T00:22:13;-16.02;79.37
73570;SHT30;61850;54.980;73.298;2023-01-01T00:24:40;-15.95;79.12
73570;SHT30;61850;54.980;73.298;2023-01-01T00:27:11;-15.97;78.96
73570;SHT30;61850;54.980;73.298;2023-01-01T00:29:47;-15.98;78.93
73570;SHT30;61850;54.980;73.298;2023-01-01T00:32:13;-15.97;78.91
73570;SHT30;61850;54.980;73.298;2023-01-01T00:34:39;-15.91;78.86
73570;SHT30;61850;54.980;73.298;2023-01-01T00:37:15;-15.91;78.72
73570;SHT30;61850;54.980;73.298;2023-01-01T00:39:43;-15.90;78.85
73570;SHT30;61850;54.980;73.298;2023-01-01T00:42:14;-15.83;78.91
73570;SHT30;61850;54.980;73.298;2023-01-01T00:44:40;-15.86;78.72
73570;SHT30;61850;54.980;73.298;2023-01-01T00:47:06;-15.90;78.80
73570;SHT30;61850;54.980;73.298;2023-01-01T00:49:37;-15.88;78.64
73570;SHT30;61850;54.980;73.298;2023-01-01T00:52:09;-15.87;79.02
73570;SHT30;61850;54.980;73.298;2023-01-01T00:54:45;-15.93;78.89
73570;SHT30;61850;54.980;73.298;2023-01-01T00:57:11;-15.84;79.06
73570;SHT30;61850;54.980;73.298;2023-01-01T00:59:41;-15.87;79.01
73570;SHT30;61850;54.980;73.298;2023-01-01T01:02:07;-15.91;79.21
73570;SHT30;61850;54.980;73.298;2023-01-01T01:04:33;-15.87;79.15
73570;SHT30;61850;54.980;73.298;2023-01-01T01:07:04;-15.91;79.16
73570;SHT30;61850;54.980;73.298;2023-01-01T01:09:37;-15.88;79.25
73570;SHT30;61850;54.980;73.298;2023-01-01T01:12:03;-15.87;79.22
73570;SHT30;61850;54.980;73.298;2023-01-01T01:14:29;-15.81;79.30
73570;SHT30;61850;54.980;73.298;2023-01-01T01:16:55;-15.84;79.32
73570;SHT30;61850;54.980;73.298;2023-01-01T01:19:21;-15.83;79.42
73570;SHT30;61850;54.980;73.298;2023-01-01T01:21:50;-15.76;79.53
73570;SHT30;61850;54.980;73.298;2023-01-01T01:24:26;-15.81;79.40
73570;SHT30;61850;54.980;73.298;2023-01-01T01:26:53;-15.87;79.52
73570;SHT30;61850;54.980;73.298;2023-01-01T01:29:28;-15.86;79.36
73570;SHT30;61850;54.980;73.298;2023-01-01T01:31:55;-15.80;79.23
73570;SHT30;61850;54.980;73.298;2023-01-01T01:34:21;-15.81;79.29
73570;SHT30;61850;54.980;73.298;2023-01-01T01:36:58;-15.86;79.38
73570;SHT30;61850;54.980;73.298;2023-01-01T01:39:24;-15.88;79.33
73570;SHT30;61850;54.980;73.298;2023-01-01T01:41:50;-15.87;79.54
73570;SHT30;61850;54.980;73.298;2023-01-01T01:47:01;-15.88;79.65
73570;SHT30;61850;54.980;73.298;2023-01-01T01:49:37;-15.98;79.93
73570;SHT30;61850;54.980;73.298;2023-01-01T01:52:03;-15.93;79.86
73570;SHT30;61850;54.980;73.298;2023-01-01T01:54:29;-16.01;78.99
73570;SHT30;61850;54.980;73.298;2023-01-01T01:57:00;-15.98;78.95
73570;SHT30;61850;54.980;73.298;2023-01-01T01:59:28;-16.22;78.57
73570;SHT30;61850;54.980;73.298;2023-01-01T02:01:56;-16.21;78.86
73570;SHT30;61850;54.980;73.298;2023-01-01T02:04:22;-16.28;78.96
73570;SHT30;61850;54.980;73.298;2023-01-01T02:06:48;-16.30;78.86
73570;SHT30;61850;54.980;73.298;2023-01-01T02:09:15;-16.38;78.87
73570;SHT30;61850;54.980;73.298;2023-01-01T02:11:41;-16.36;79.05
73570;SHT30;61850;54.980;73.298;2023-01-01T02:14:07;-16.36;78.84
73570;SHT30;61850;54.980;73.298;2023-01-01T02:16:50;-16.40;78.78
73570;SHT30;61850;54.980;73.298;2023-01-01T02:22:01;-16.63;78.18
73570;SHT30;61850;54.980;73.298;2023-01-01T02:27:03;-16.57;78.29
73570;SHT30;61850;54.980;73.298;2023-01-01T02:32:22;-16.60;77.97
73570;SHT30;61850;54.980;73.298;2023-01-01T02:35:10;-16.72;77.70
73570;SHT30;61850;54.980;73.298;2023-01-01T02:37:58;-16.67;77.73
73570;SHT30;61850;54.980;73.298;2023-01-01T02:40:24;-16.70;77.58
73570;SHT30;61850;54.980;73.298;2023-01-01T02:42:51;-16.72;77.45
73570;SHT30;61850;54.980;73.298;2023-01-01T02:45:18;-16.84;77.61
73570;SHT30;61850;54.980;73.298;2023-01-01T02:47:44;-16.81;77.70
73570;SHT30;61850;54.980;73.298;2023-01-01T02:50:18;-16.79;77.70
73570;SHT30;61850;54.980;73.298;2023-01-01T02:52:54;-16.79;77.52
73570;SHT30;61850;54.980;73.298;2023-01-01T02:58:13;-16.81;77.45
73570;SHT30;61850;54.980;73.298;2023-01-01T03:01:47;-16.80;77.25
73570;SHT30;61850;54.980;73.298;2023-01-01T03:04:00;-16.77;77.31
73570;SHT30;61850;54.980;73.298;2023-01-01T03:06:37;-16.79;77.43
73570;SHT30;61850;54.980;73.298;2023-01-01T03:11:50;-16.91;77.10
73570;SHT30;61850;54.980;73.298;2023-01-01T03:17:26;-16.83;77.46
73570;SHT30;61850;54.980;73.298;2023-01-01T03:19:53;-16.83;77.36
73570;SHT30;61850;54.980;73.298;2023-01-01T03:22:22;-16.87;77.23
73570;SHT30;61850;54.980;73.298;2023-01-01T03:27:31;-16.87;77.50
73570;SHT30;61850;54.980;73.298;2023-01-01T03:30:00;-16.87;77.49
73570;SHT30;61850;54.980;73.298;2023-01-01T03:32:33;-16.84;77.69
73570;SHT30;61850;54.980;73.298;2023-01-01T03:36:13;-16.86;77.55
73570;SHT30;61850;54.980;73.298;2023-01-01T03:38:25;-16.84;77.63
73570;SHT30;61850;54.980;73.298;2023-01-01T03:40:57;-16.77;77.60
73570;SHT30;61850;54.980;73.298;2023-01-01T03:46:06;-16.84;77.18
73570;SHT30;61850;54.980;73.298;2023-01-01T03:48:33;-16.87;77.52
73570;SHT30;61850;54.980;73.298;2023-01-01T03:51:31;-16.88;77.70
73570;SHT30;61850;54.980;73.298;2023-01-01T03:54:03;-16.84;77.70
73570;SHT30;61850;54.980;73.298;2023-01-01T03:56:39;-16.83;77.65
73570;SHT30;61850;54.980;73.298;2023-01-01T03:59:16;-16.80;77.48
73570;SHT30;61850;54.980;73.298;2023-01-01T04:01:56;-16.81;77.53
73570;SHT30;61850;54.980;73.298;2023-01-01T04:04:23;-16.80;77.31
73570;SHT30;61850;54.980;73.298;2023-01-01T04:06:54;-16.79;77.25
73570;SHT30;61850;54.980;73.298;2023-01-01T04:09:23;-16.80;77.34
73570;SHT30;61850;54.980;73.298;2023-01-01T04:11:51;-16.79;77.30
73570;SHT30;61850;54.980;73.298;2023-01-01T04:14:46;-16.79;77.29
73570;SHT30;61850;54.980;73.298;2023-01-01T04:17:12;-16.88;77.35
73570;SHT30;61850;54.980;73.298;2023-01-01T04:19:39;-16.90;77.14
73570;SHT30;61850;54.980;73.298;2023-01-01T04:22:05;-16.91;77.10
73570;SHT30;61850;54.980;73.298;2023-01-01T04:24:31;-16.97;77.02
73570;SHT30;61850;54.980;73.298;2023-01-01T04:27:07;-16.90;76.96
73570;SHT30;61850;54.980;73.298;2023-01-01T04:29:33;-16.95;76.75
73570;SHT30;61850;54.980;73.298;2023-01-01T04:32:02;-16.95;76.87
73570;SHT30;61850;54.980;73.298;2023-01-01T04:34:28;-16.86;76.91
73570;SHT30;61850;54.980;73.298;2023-01-01T04:36:54;-16.93;76.61
73570;SHT30;61850;54.980;73.298;2023-01-01T04:39:20;-16.83;76.68
73570;SHT30;61850;54.980;73.298;2023-01-01T04:41:46;-16.77;76.39
73570;SHT30;61850;54.980;73.298;2023-01-01T04:44:15;-16.86;76.32
73570;SHT30;61850;54.980;73.298;2023-01-01T04:46:41;-16.77;76.42
73570;SHT30;61850;54.980;73.298;2023-01-01T04:49:11;-16.67;76.23
73570;SHT30;61850;54.980;73.298;2023-01-01T04:51:47;-16.79;76.13
73570;SHT30;61850;54.980;73.298;2023-01-01T04:54:13;-16.91;76.02
73570;SHT30;61850;54.980;73.298;2023-01-01T04:56:39;-16.86;76.09
73570;SHT30;61850;54.980;73.298;2023-01-01T04:59:06;-16.73;76.24
73570;SHT30;61850;54.980;73.298;2023-01-01T05:01:32;-16.81;75.93
73570;SHT30;61850;54.980;73.298;2023-01-01T05:04:08;-16.74;76.11
73570;SHT30;61850;54.980;73.298;2023-01-01T05:06:38;-16.74;75.81
73570;SHT30;61850;54.980;73.298;2023-01-01T05:09:04;-16.64;75.86
73570;SHT30;61850;54.980;73.298;2023-01-01T05:11:30;-16.53;75.74
73570;SHT30;61850;54.980;73.298;2023-01-01T05:13:58;-16.52;75.28
73570;SHT30;61850;54.980;73.298;2023-01-01T05:16:31;-16.56;75.15
73570;SHT30;61850;54.980;73.298;2023-01-01T05:18:57;-16.33;75.32
73570;SHT30;61850;54.980;73.298;2023-01-01T05:21:30;-16.24;74.79
73570;SHT30;61850;54.980;73.298;2023-01-01T05:24:07;-16.29;74.62
73570;SHT30;61850;54.980;73.298;2023-01-01T05:26:35;-16.16;74.55
73570;SHT30;61850;54.980;73.298;2023-01-01T05:29:01;-16.05;74.31
73570;SHT30;61850;54.980;73.298;2023-01-01T05:31:36;-16.05;73.89
73570;SHT30;61850;54.980;73.298;2023-01-01T05:34:09;-16.05;73.92
73570;SHT30;61850;54.980;73.298;2023-01-01T05:36:46;-15.99;74.25
73570;SHT30;61850;54.980;73.298;2023-01-01T05:39:12;-16.09;73.69
73570;SHT30;61850;54.980;73.298;2023-01-01T05:41:38;-16.02;73.88
73570;SHT30;61850;54.980;73.298;2023-01-01T05:44:06;-16.08;74.06
73570;SHT30;61850;54.980;73.298;2023-01-01T05:46:33;-15.88;73.98
73570;SHT30;61850;54.980;73.298;2023-01-01T05:49:08;-15.86;73.52
73570;SHT30;61850;54.980;73.298;2023-01-01T05:51:34;-15.83;73.61
73570;SHT30;61850;54.980;73.298;2023-01-01T05:54:01;-15.73;73.55
73570;SHT30;61850;54.980;73.298;2023-01-01T05:56:27;-15.77;73.19
73570;SHT30;61850;54.980;73.298;2023-01-01T05:58:53;-15.77;72.96
73570;SHT30;61850;54.980;73.298;2023-01-01T06:01:21;-15.63;73.07
73570;SHT30;61850;54.980;73.298;2023-01-01T06:03:50;-15.63;72.85
73570;SHT30;61850;54.980;73.298;2023-01-01T06:06:18;-15.67;72.30
73570;SHT30;61850;54.980;73.298;2023-01-01T06:08:50;-15.56;72.77
73570;SHT30;61850;54.980;73.298;2023-01-01T06:11:19;-15.46;72.29
73570;SHT30;61850;54.980;73.298;2023-01-01T06:13:59;-15.39;71.76
73570;SHT30;61850;54.980;73.298;2023-01-01T06:16:41;-15.47;71.56
73570;SHT30;61850;54.980;73.298;2023-01-01T06:19:08;-15.40;71.87
73570;SHT30;61850;54.980;73.298;2023-01-01T06:21:35;-15.57;71.61
73570;SHT30;61850;54.980;73.298;2023-01-01T06:24:01;-15.60;71.85
73570;SHT30;61850;54.980;73.298;2023-01-01T06:26:31;-15.57;71.58
73570;SHT30;61850;54.980;73.298;2023-01-01T06:28:59;-15.50;71.22
73570;SHT30;61850;54.980;73.298;2023-01-01T06:31:26;-15.43;71.32
73570;SHT30;61850;54.980;73.298;2023-01-01T06:34:02;-15.43;71.02
73570;SHT30;61850;54.980;73.298;2023-01-01T06:36:29;-15.42;70.68
73570;SHT30;61850;54.980;73.298;2023-01-01T06:39:00;-15.21;70.68
73570;SHT30;61850;54.980;73.298;2023-01-01T06:41:33;-15.10;70.26
73570;SHT30;61850;54.980;73.298;2023-01-01T06:43:59;-15.24;70.03
73570;SHT30;61850;54.980;73.298;2023-01-01T06:46:27;-15.04;70.27
73570;SHT30;61850;54.980;73.298;2023-01-01T06:48:55;-14.86;69.34
73570;SHT30;61850;54.980;73.298;2023-01-01T06:51:23;-14.97;68.78
73570;SHT30;61850;54.980;73.298;2023-01-01T06:53:56;-15.05;69.17
73570;SHT30;61850;54.980;73.298;2023-01-01T06:56:22;-15.05;69.13
73570;SHT30;61850;54.980;73.298;2023-01-01T06:58:49;-15.31;68.88
73570;SHT30;61850;54.980;73.298;2023-01-01T07:01:20;-15.46;69.54
73570;SHT30;61850;54.980;73.298;2023-01-01T07:03:50;-15.42;69.65
73570;SHT30;61850;54.980;73.298;2023-01-01T07:06:16;-15.47;69.96
73570;SHT30;61850;54.980;73.298;2023-01-01T07:08:42;-15.35;69.96
73570;SHT30;61850;54.980;73.298;2023-01-01T07:11:08;-15.25;69.60
73570;SHT30;61850;54.980;73.298;2023-01-01T07:13:35;-15.18;69.71
73570;SHT30;61850;54.980;73.298;2023-01-01T07:16:03;-15.10;68.93
73570;SHT30;61850;54.980;73.298;2023-01-01T07:18:47;-15.03;68.81
73570;SHT30;61850;54.980;73.298;2023-01-01T07:21:26;-15.08;68.80
73570;SHT30;61850;54.980;73.298;2023-01-01T07:23:58;-15.05;68.55
73570;SHT30;61850;54.980;73.298;2023-01-01T07:26:31;-15.29;68.66
73570;SHT30;61850;54.980;73.298;2023-01-01T07:28:59;-15.32;69.24
73570;SHT30;61850;54.980;73.298;2023-01-01T07:31:26;-15.39;68.83
73570;SHT30;61850;54.980;73.298;2023-01-01T07:33:52;-15.34;69.16
73570;SHT30;61850;54.980;73.298;2023-01-01T07:36:19;-15.52;69.27
73570;SHT30;61850;54.980;73.298;2023-01-01T07:38:47;-15.53;69.59
73570;SHT30;61850;54.980;73.298;2023-01-01T07:41:15;-15.67;69.34
73570;SHT30;61850;54.980;73.298;2023-01-01T07:43:42;-15.76;69.81
73570;SHT30;61850;54.980;73.298;2023-01-01T07:46:15;-15.56;70.05
73570;SHT30;61850;54.980;73.298;2023-01-01T07:48:47;-15.46;69.28
73570;SHT30;61850;54.980;73.298;2023-01-01T07:51:17;-15.57;69.08
73570;SHT30;61850;54.980;73.298;2023-01-01T07:53:47;-15.62;69.51
73570;SHT30;61850;54.980;73.298;2023-01-01T07:56:14;-15.59;69.51
73570;SHT30;61850;54.980;73.298;2023-01-01T07:58:41;-15.84;69.56
73570;SHT30;61850;54.980;73.298;2023-01-01T08:01:10;-15.91;69.85
73570;SHT30;61850;54.980;73.298;2023-01-01T08:03:38;-15.80;70.36
73570;SHT30;61850;54.980;73.298;2023-01-01T08:06:06;-15.71;70.16
73570;SHT30;61850;54.980;73.298;2023-01-01T08:08:34;-15.83;69.70
73570;SHT30;61850;54.980;73.298;2023-01-01T08:11:01;-15.73;69.86
73570;SHT30;61850;54.980;73.298;2023-01-01T08:13:30;-15.78;69.73
73570;SHT30;61850;54.980;73.298;2023-01-01T08:15:58;-15.66;69.76
73570;SHT30;61850;54.980;73.298;2023-01-01T08:18:25;-15.62;69.71
73570;SHT30;61850;54.980;73.298;2023-01-01T08:21:03;-15.57;69.83
73570;SHT30;61850;54.980;73.298;2023-01-01T08:26:30;-15.52;69.59
73570;SHT30;61850;54.980;73.298;2023-01-01T08:29:26;-15.55;69.71
73570;SHT30;61850;54.980;73.298;2023-01-01T08:32:02;-15.46;69.54
73570;SHT30;61850;54.980;73.298;2023-01-01T08:34:34;-15.60;69.75
73570;SHT30;61850;54.980;73.298;2023-01-01T08:37:10;-15.55;69.99
73570;SHT30;61850;54.980;73.298;2023-01-01T08:39:40;-15.47;69.74
73570;SHT30;61850;54.980;73.298;2023-01-01T08:42:19;-15.52;69.56
73570;SHT30;61850;54.980;73.298;2023-01-01T08:44:45;-15.46;69.83
73570;SHT30;61850;54.980;73.298;2023-01-01T08:47:21;-15.60;69.74
73570;SHT30;61850;54.980;73.298;2023-01-01T08:50:07;-15.65;70.11
73570;SHT30;61850;54.980;73.298;2023-01-01T08:52:35;-15.62;70.62
73570;SHT30;61850;54.980;73.298;2023-01-01T08:55:02;-15.81;71.00
73570;SHT30;61850;54.980;73.298;2023-01-01T08:57:35;-15.74;71.18
73570;SHT30;61850;54.980;73.298;2023-01-01T09:00:06;-15.76;71.28
73570;SHT30;61850;54.980;73.298;2023-01-01T09:02:35;-15.74;70.94
73570;SHT30;61850;54.980;73.298;2023-01-01T09:05:15;-15.84;71.19
73570;SHT30;61850;54.980;73.298;2023-01-01T09:07:51;-15.93;71.15
73570;SHT30;61850;54.980;73.298;2023-01-01T09:10:22;-16.04;71.40
73570;SHT30;61850;54.980;73.298;2023-01-01T09:12:48;-16.12;71.98
73570;SHT30;61850;54.980;73.298;2023-01-01T09:15:19;-16.01;71.95
73570;SHT30;61850;54.980;73.298;2023-01-01T09:17:45;-16.11;71.60
73570;SHT30;61850;54.980;73.298;2023-01-01T09:20:12;-16.07;71.82
73570;SHT30;61850;54.980;73.298;2023-01-01T09:23:06;-16.22;71.97
73570;SHT30;61850;54.980;73.298;2023-01-01T09:25:36;-16.25;72.23
73570;SHT30;61850;54.980;73.298;2023-01-01T09:28:04;-16.21;72.46
73570;SHT30;61850;54.980;73.298;2023-01-01T09:30:30;-16.30;72.64
73570;SHT30;61850;54.980;73.298;2023-01-01T09:32:57;-16.21;72.67
73570;SHT30;61850;54.980;73.298;2023-01-01T09:35:24;-16.19;72.60
73570;SHT30;61850;54.980;73.298;2023-01-01T09:37:50;-16.28;72.70
73570;SHT30;61850;54.980;73.298;2023-01-01T09:40:31;-16.39;73.13
73570;SHT30;61850;54.980;73.298;2023-01-01T09:45:46;-16.45;73.62
73570;SHT30;61850;54.980;73.298;2023-01-01T09:48:17;-16.49;73.60
73570;SHT30;61850;54.980;73.298;2023-01-01T09:50:44;-16.59;73.88
73570;SHT30;61850;54.980;73.298;2023-01-01T09:53:20;-16.70;74.06
73570;SHT30;61850;54.980;73.298;2023-01-01T09:55:56;-16.81;74.49
73570;SHT30;61850;54.980;73.298;2023-01-01T09:58:26;-16.90;74.63
73570;SHT30;61850;54.980;73.298;2023-01-01T10:01:16;-16.91;74.72
73570;SHT30;61850;54.980;73.298;2023-01-01T10:03:49;-16.97;75.06
73570;SHT30;61850;54.980;73.298;2023-01-01T10:09:14;-17.15;75.32
73570;SHT30;61850;54.980;73.298;2023-01-01T10:11:57;-17.22;75.51
73570;SHT30;61850;54.980;73.298;2023-01-01T10:23:24;-17.49;75.77
73570;SHT30;61850;54.980;73.298;2023-01-01T10:25:56;-17.52;75.77
73570;SHT30;61850;54.980;73.298;2023-01-01T10:28:34;-17.52;75.76
73570;SHT30;61850;54.980;73.298;2023-01-01T10:34:18;-17.73;75.97
73570;SHT30;61850;54.980;73.298;2023-01-01T10:36:45;-17.76;76.35
73570;SHT30;61850;54.980;73.298;2023-01-01T10:39:15;-17.80;76.35
73570;SHT30;61850;54.980;73.298;2023-01-01T10:41:43;-17.77;76.25
73570;SHT30;61850;54.980;73.298;2023-01-01T10:44:27;-17.88;76.13
73570;SHT30;61850;54.980;73.298;2023-01-01T10:46:58;-18.04;76.54
73570;SHT30;61850;54.980;73.298;2023-01-01T10:49:34;-18.15;76.84
73570;SHT30;61850;54.980;73.298;2023-01-01T10:52:20;-18.21;76.86
73570;SHT30;61850;54.980;73.298;2023-01-01T10:54:52;-18.22;76.78
73570;SHT30;61850;54.980;73.298;2023-01-01T10:59:53;-18.40;76.86
73570;SHT30;61850;54.980;73.298;2023-01-01T11:02:23;-18.46;77.05
73570;SHT30;61850;54.980;73.298;2023-01-01T11:07:36;-18.64;77.10
73570;SHT30;61850;54.980;73.298;2023-01-01T11:10:03;-18.83;77.31
73570;SHT30;61850;54.980;73.298;2023-01-01T11:12:35;-18.83;77.42
73570;SHT30;61850;54.980;73.298;2023-01-01T11:15:02;-18.81;77.19
73570;SHT30;61850;54.980;73.298;2023-01-01T11:17:29;-18.88;76.96
73570;SHT30;61850;54.980;73.298;2023-01-01T11:19:57;-18.95;77.03
73570;SHT30;61850;54.980;73.298;2023-01-01T11:22:42;-19.09;77.19
73570;SHT30;61850;54.980;73.298;2023-01-01T11:25:19;-19.12;77.52
73570;SHT30;61850;54.980;73.298;2023-01-01T11:27:48;-19.19;77.51
73570;SHT30;61850;54.980;73.298;2023-01-01T11:30:24;-19.23;77.56
73570;SHT30;61850;54.980;73.298;2023-01-01T11:33:01;-19.32;77.81
73570;SHT30;61850;54.980;73.298;2023-01-01T11:35:31;-19.33;77.80
73570;SHT30;61850;54.980;73.298;2023-01-01T11:38:00;-19.42;77.87
73570;SHT30;61850;54.980;73.298;2023-01-01T11:40:32;-19.40;77.91
73570;SHT30;61850;54.980;73.298;2023-01-01T11:43:01;-19.42;77.95
73570;SHT30;61850;54.980;73.298;2023-01-01T11:45:38;-19.43;77.85
73570;SHT30;61850;54.980;73.298;2023-01-01T11:48:15;-19.56;78.07
73570;SHT30;61850;54.980;73.298;2023-01-01T11:50:49;-19.63;78.28
73570;SHT30;61850;54.980;73.298;2023-01-01T12:01:02;-19.76;78.75
73570;SHT30;61850;54.980;73.298;2023-01-01T12:03:53;-19.76;78.95
73570;SHT30;61850;54.980;73.298;2023-01-01T12:06:32;-19.81;78.92
73570;SHT30;61850;54.980;73.298;2023-01-01T12:17:33;-19.87;78.89
73570;SHT30;61850;54.980;73.298;2023-01-01T12:20:11;-19.88;79.14
73570;SHT30;61850;54.980;73.298;2023-01-01T12:22:43;-19.90;79.24
73570;SHT30;61850;54.980;73.298;2023-01-01T12:25:40;-19.91;79.23
73570;SHT30;61850;54.980;73.298;2023-01-01T12:30:43;-19.90;79.22
73570;SHT30;61850;54.980;73.298;2023-01-01T12:33:20;-19.88;79.14
73570;SHT30;61850;54.980;73.298;2023-01-01T12:41:07;-19.87;79.40
73570;SHT30;61850;54.980;73.298;2023-01-01T12:47:27;-19.87;79.08
73570;SHT30;61850;54.980;73.298;2023-01-01T12:52:56;-19.88;79.33
73570;SHT30;61850;54.980;73.298;2023-01-01T12:58:15;-19.85;79.77
73570;SHT30;61850;54.980;73.298;2023-01-01T13:00:53;-19.84;79.76
73570;SHT30;61850;54.980;73.298;2023-01-01T13:03:23;-19.80;79.65
73570;SHT30;61850;54.980;73.298;2023-01-01T13:06:03;-19.76;79.63
73570;SHT30;61850;54.980;73.298;2023-01-01T13:08:34;-19.76;79.48
73570;SHT30;61850;54.980;73.298;2023-01-01T13:11:01;-19.81;79.54
73570;SHT30;61850;54.980;73.298;2023-01-01T13:13:33;-19.77;79.78
73570;SHT30;61850;54.980;73.298;2023-01-01T13:20:44;-19.77;79.51
73570;SHT30;61850;54.980;73.298;2023-01-01T13:32:25;-19.76;79.45
73570;SHT30;61850;54.980;73.298;2023-01-01T13:40:51;-19.88;79.39
73570;SHT30;61850;54.980;73.298;2023-01-01T13:46:26;-19.91;79.61
73570;SHT30;61850;54.980;73.298;2023-01-01T14:07:42;-19.73;79.17
73570;SHT30;61850;54.980;73.298;2023-01-01T14:10:15;-19.69;79.06
73570;SHT30;61850;54.980;73.298;2023-01-01T14:12:47;-19.62;78.78
73570;SHT30;61850;54.980;73.298;2023-01-01T14:15:27;-19.67;78.87
73570;SHT30;61850;54.980;73.298;2023-01-01T14:21:07;-19.66;78.78
73570;SHT30;61850;54.980;73.298;2023-01-01T14:24:10;-19.69;78.61
73570;SHT30;61850;54.980;73.298;2023-01-01T14:26:42;-19.69;78.44
73570;SHT30;61850;54.980;73.298;2023-01-01T14:29:19;-19.77;78.50
73570;SHT30;61850;54.980;73.298;2023-01-01T14:31:59;-19.84;78.50
73570;SHT30;61850;54.980;73.298;2023-01-01T14:55:50;-20.46;79.48
73570;SHT30;61850;54.980;73.298;2023-01-01T14:58:24;-20.46;79.57
73570;SHT30;61850;54.980;73.298;2023-01-01T15:00:51;-20.53;79.37
73570;SHT30;61850;54.980;73.298;2023-01-01T15:03:21;-20.52;79.42
73570;SHT30;61850;54.980;73.298;2023-01-01T15:08:53;-20.57;79.10
73570;SHT30;61850;54.980;73.298;2023-01-01T15:11:46;-20.59;79.16
73570;SHT30;61850;54.980;73.298;2023-01-01T15:22:46;-20.95;79.53
73570;SHT30;61850;54.980;73.298;2023-01-01T15:25:30;-20.98;79.39
73570;SHT30;61850;54.980;73.298;2023-01-01T15:37:55;-21.05;78.44
73570;SHT30;61850;54.980;73.298;2023-01-01T15:45:32;-21.09;78.06
73570;SHT30;61850;54.980;73.298;2023-01-01T15:50:35;-21.18;78.08
73570;SHT30;61850;54.980;73.298;2023-01-01T15:53:08;-21.20;78.06
73570;SHT30;61850;54.980;73.298;2023-01-01T15:55:43;-21.23;78.13
73570;SHT30;61850;54.980;73.298;2023-01-01T15:58:18;-21.26;78.27
73570;SHT30;61850;54.980;73.298;2023-01-01T16:00:52;-21.32;78.31
73570;SHT30;61850;54.980;73.298;2023-01-01T16:03:23;-21.27;78.17
73570;SHT30;61850;54.980;73.298;2023-01-01T16:05:54;-21.22;78.13
73570;SHT30;61850;54.980;73.298;2023-01-01T16:08:46;-21.25;77.87
73570;SHT30;61850;54.980;73.298;2023-01-01T16:11:13;-21.23;77.76
73570;SHT30;61850;54.980;73.298;2023-01-01T16:13:41;-21.25;77.65
73570;SHT30;61850;54.980;73.298;2023-01-01T16:23:10;-21.20;77.68
73570;SHT30;61850;54.980;73.298;2023-01-01T16:25:49;-21.19;77.77
73570;SHT30;61850;54.980;73.298;2023-01-01T16:28:18;-21.25;77.71
73570;SHT30;61850;54.980;73.298;2023-01-01T16:30:49;-21.37;77.95
73570;SHT30;61850;54.980;73.298;2023-01-01T16:33:18;-21.39;78.05
73570;SHT30;61850;54.980;73.298;2023-01-01T16:35:45;-21.42;78.15
73570;SHT30;61850;54.980;73.298;2023-01-01T16:38:13;-21.35;78.07
73570;SHT30;61850;54.980;73.298;2023-01-01T16:40:39;-21.39;77.80
73570;SHT30;61850;54.980;73.298;2023-01-01T16:43:16;-21.33;77.84
73570;SHT30;61850;54.980;73.298;2023-01-01T16:45:43;-21.30;77.74
73570;SHT30;61850;54.980;73.298;2023-01-01T16:48:09;-21.26;77.79
73570;SHT30;61850;54.980;73.298;2023-01-01T16:50:36;-21.23;77.87
73570;SHT30;61850;54.980;73.298;2023-01-01T16:53:03;-21.22;77.70
73570;SHT30;61850;54.980;73.298;2023-01-01T16:55:38;-21.22;77.66
73570;SHT30;61850;54.980;73.298;2023-01-01T16:58:15;-21.25;77.77
73570;SHT30;61850;54.980;73.298;2023-01-01T17:00:42;-21.30;77.84
73570;SHT30;61850;54.980;73.298;2023-01-01T17:03:12;-21.35;77.81
73570;SHT30;61850;54.980;73.298;2023-01-01T17:05:39;-21.45;77.73
73570;SHT30;61850;54.980;73.298;2023-01-01T17:08:05;-21.54;77.72
73570;SHT30;61850;54.980;73.298;2023-01-01T17:10:31;-21.61;77.79
73570;SHT30;61850;54.980;73.298;2023-01-01T17:13:03;-21.68;77.82
73570;SHT30;61850;54.980;73.298;2023-01-01T17:15:30;-21.70;77.97
73570;SHT30;61850;54.980;73.298;2023-01-01T17:17:56;-21.74;78.05
73570;SHT30;61850;54.980;73.298;2023-01-01T17:20:24;-21.79;78.23
73570;SHT30;61850;54.980;73.298;2023-01-01T17:22:56;-21.82;78.44
73570;SHT30;61850;54.980;73.298;2023-01-01T17:25:22;-21.73;78.44
73570;SHT30;61850;54.980;73.298;2023-01-01T17:27:54;-21.74;78.29
73570;SHT30;61850;54.980;73.298;2023-01-01T17:30:23;-21.74;78.22
73570;SHT30;61850;54.980;73.298;2023-01-01T17:32:50;-21.79;78.12
73570;SHT30;61850;54.980;73.298;2023-01-01T17:35:16;-21.79;78.27
73570;SHT30;61850;54.980;73.298;2023-01-01T17:37:42;-21.75;78.37
73570;SHT30;61850;54.980;73.298;2023-01-01T17:40:12;-21.64;78.40
73570;SHT30;61850;54.980;73.298;2023-01-01T17:42:39;-21.60;78.19
73570;SHT30;61850;54.980;73.298;2023-01-01T17:45:10;-21.54;78.08
73570;SHT30;61850;54.980;73.298;2023-01-01T17:47:41;-21.51;77.87
73570;SHT30;61850;54.980;73.298;2023-01-01T17:50:17;-21.56;77.78
73570;SHT30;61850;54.980;73.298;2023-01-01T17:52:44;-21.67;78.08
73570;SHT30;61850;54.980;73.298;2023-01-01T17:55:15;-21.67;78.22
73570;SHT30;61850;54.980;73.298;2023-01-01T17:57:41;-21.60;78.13
73570;SHT30;61850;54.980;73.298;2023-01-01T18:00:08;-21.51;77.88
73570;SHT30;61850;54.980;73.298;2023-01-01T18:02:38;-21.51;77.87
73570;SHT30;61850;54.980;73.298;2023-01-01T18:05:04;-21.47;78.03
73570;SHT30;61850;54.980;73.298;2023-01-01T18:07:40;-21.33;77.88
73570;SHT30;61850;54.980;73.298;2023-01-01T18:10:09;-21.35;77.66
73570;SHT30;61850;54.980;73.298;2023-01-01T18:12:35;-21.33;77.64
73570;SHT30;61850;54.980;73.298;2023-01-01T18:15:07;-21.32;77.99
73570;SHT30;61850;54.980;73.298;2023-01-01T18:17:33;-21.27;78.00
73570;SHT30;61850;54.980;73.298;2023-01-01T18:19:59;-21.18;77.87
73570;SHT30;61850;54.980;73.298;2023-01-01T18:22:26;-21.18;77.84
73570;SHT30;61850;54.980;73.298;2023-01-01T18:24:52;-21.20;78.03
73570;SHT30;61850;54.980;73.298;2023-01-01T18:27:19;-21.18;78.05
73570;SHT30;61850;54.980;73.298;2023-01-01T18:29:45;-21.11;78.03
73570;SHT30;61850;54.980;73.298;2023-01-01T18:32:12;-21.11;78.08
73570;SHT30;61850;54.980;73.298;2023-01-01T18:34:40;-21.18;78.09